sensor_id;sensor_type;location;lat;lon;timestamp;P1;durP1;ratioP1;P2;durP2;ratioP2
22490;SDS011;11412;50.802;4.350;2024-01-27T00:01:33;6.50;;;3.50;;
22490;SDS011;11412;50.802;4.350;2024-01-27T00:03:58;7.82;;;2.97;;
22490;SDS011;11412;50.802;4.350;2024-01-27T00:06:24;9.07;;;3.53;;
22490;SDS011;11412;50.802;4.350;2024-01-27T00:08:50;6.38;;;3.67;;
22490;SDS011;11412;50.802;4.350;2024-01-27T00:11:15;4.68;;;3.15;;
22490;SDS011;11412;50.802;4.350;2024-01-27T00:13:41;11.02;;;4.20;;
22490;SDS011;11412;50.802;4.350;2024-01-27T00:16:07;9.07;;;4.00;;
22490;SDS011;11412;50.802;4.350;2024-01-27T00:18:35;8.88;;;3.47;;
22490;SDS011;11412;50.802;4.350;2024-01-27T00:21:02;7.90;;;3.33;;
22490;SDS011;11412;50.802;4.350;2024-01-27T00:23:28;7.03;;;3.67;;
22490;SDS011;11412;50.802;4.350;2024-01-27T00:25:54;7.63;;;3.78;;
22490;SDS011;11412;50.802;4.350;2024-01-27T00:28:20;10.02;;;4.72;;
22490;SDS011;11412;50.802;4.350;2024-01-27T00:30:45;8.43;;;3.28;;
22490;SDS011;11412;50.802;4.350;2024-01-27T00:33:11;14.40;;;4.18;;
22490;SDS011;11412;50.802;4.350;2024-01-27T00:35:37;8.55;;;4.25;;
22490;SDS011;11412;50.802;4.350;2024-01-27T00:38:02;11.55;;;3.53;;
22490;SDS011;11412;50.802;4.350;2024-01-27T00:40:28;9.75;;;3.67;;
22490;SDS011;11412;50.802;4.350;2024-01-27T00:42:54;11.73;;;4.28;;
22490;SDS011;11412;50.802;4.350;2024-01-27T00:45:20;9.10;;;3.58;;
22490;SDS011;11412;50.802;4.350;2024-01-27T00:47:48;11.07;;;3.97;;
22490;SDS011;11412;50.802;4.350;2024-01-27T00:50:14;8.95;;;3.63;;
22490;SDS011;11412;50.802;4.350;2024-01-27T00:52:40;9.30;;;3.72;;
22490;SDS011;11412;50.802;4.350;2024-01-27T00:55:06;9.60;;;3.80;;
22490;SDS011;11412;50.802;4.350;2024-01-27T00:57:32;9.93;;;3.45;;
22490;SDS011;11412;50.802;4.350;2024-01-27T00:59:57;9.15;;;3.58;;
22490;SDS011;11412;50.802;4.350;2024-01-27T01:02:23;10.68;;;3.75;;
22490;SDS011;11412;50.802;4.350;2024-01-27T01:04:49;9.32;;;3.47;;
22490;SDS011;11412;50.802;4.350;2024-01-27T01:07:14;12.55;;;4.20;;
22490;SDS011;11412;50.802;4.350;2024-01-27T01:09:40;13.02;;;3.95;;
22490;SDS011;11412;50.802;4.350;2024-01-27T01:12:06;11.23;;;4.38;;
22490;SDS011;11412;50.802;4.350;2024-01-27T01:14:31;12.77;;;3.90;;
22490;SDS011;11412;50.802;4.350;2024-01-27T01:16:57;9.38;;;3.72;;
22490;SDS011;11412;50.802;4.350;2024-01-27T01:19:23;11.57;;;4.13;;
22490;SDS011;11412;50.802;4.350;2024-01-27T01:21:49;9.90;;;4.07;;
22490;SDS011;11412;50.802;4.350;2024-01-27T01:24:14;10.23;;;4.63;;
22490;SDS011;11412;50.802;4.350;2024-01-27T01:26:40;9.55;;;4.10;;
22490;SDS011;11412;50.802;4.350;2024-01-27T01:29:06;5.32;;;3.60;;
22490;SDS011;11412;50.802;4.350;2024-01-27T01:31:31;6.70;;;3.90;;
22490;SDS011;11412;50.802;4.350;2024-01-27T01:33:57;10.25;;;4.40;;
22490;SDS011;11412;50.802;4.350;2024-01-27T01:36:23;9.15;;;3.90;;
22490;SDS011;11412;50.802;4.350;2024-01-27T01:38:48;8.60;;;4.22;;
22490;SDS011;11412;50.802;4.350;2024-01-27T01:41:14;12.68;;;4.63;;
22490;SDS011;11412;50.802;4.350;2024-01-27T01:43:40;7.50;;;4.05;;
22490;SDS011;11412;50.802;4.350;2024-01-27T01:46:05;10.15;;;5.00;;
22490;SDS011;11412;50.802;4.350;2024-01-27T01:48:31;10.85;;;4.60;;
22490;SDS011;11412;50.802;4.350;2024-01-27T01:50:57;11.40;;;4.07;;
22490;SDS011;11412;50.802;4.350;2024-01-27T01:53:24;9.73;;;4.35;;
22490;SDS011;11412;50.802;4.350;2024-01-27T01:55:50;11.35;;;4.53;;
22490;SDS011;11412;50.802;4.350;2024-01-27T01:58:17;13.18;;;5.65;;
22490;SDS011;11412;50.802;4.350;2024-01-27T02:00:43;12.07;;;4.82;;
22490;SDS011;11412;50.802;4.350;2024-01-27T02:03:12;7.88;;;4.40;;
22490;SDS011;11412;50.802;4.350;2024-01-27T02:05:38;11.05;;;4.28;;
22490;SDS011;11412;50.802;4.350;2024-01-27T02:08:04;12.20;;;4.38;;
22490;SDS011;11412;50.802;4.350;2024-01-27T02:10:30;11.77;;;5.00;;
22490;SDS011;11412;50.802;4.350;2024-01-27T02:13:04;13.27;;;5.03;;
22490;SDS011;11412;50.802;4.350;2024-01-27T02:15:44;9.77;;;4.32;;
22490;SDS011;11412;50.802;4.350;2024-01-27T02:18:10;10.68;;;4.85;;
22490;SDS011;11412;50.802;4.350;2024-01-27T02:20:36;10.55;;;4.20;;
22490;SDS011;11412;50.802;4.350;2024-01-27T02:23:05;10.45;;;5.20;;
22490;SDS011;11412;50.802;4.350;2024-01-27T02:25:31;11.27;;;4.68;;
22490;SDS011;11412;50.802;4.350;2024-01-27T02:28:00;14.05;;;4.55;;
22490;SDS011;11412;50.802;4.350;2024-01-27T02:30:28;12.63;;;4.70;;
22490;SDS011;11412;50.802;4.350;2024-01-27T02:32:57;8.68;;;4.60;;
22490;SDS011;11412;50.802;4.350;2024-01-27T02:35:25;14.07;;;4.90;;
22490;SDS011;11412;50.802;4.350;2024-01-27T02:37:51;14.73;;;5.22;;
22490;SDS011;11412;50.802;4.350;2024-01-27T02:40:16;12.18;;;4.97;;
22490;SDS011;11412;50.802;4.350;2024-01-27T02:42:42;10.93;;;4.85;;
22490;SDS011;11412;50.802;4.350;2024-01-27T02:45:09;9.07;;;4.50;;
22490;SDS011;11412;50.802;4.350;2024-01-27T02:47:35;13.13;;;5.25;;
22490;SDS011;11412;50.802;4.350;2024-01-27T02:50:00;13.30;;;5.43;;
22490;SDS011;11412;50.802;4.350;2024-01-27T02:52:26;9.00;;;4.57;;
22490;SDS011;11412;50.802;4.350;2024-01-27T02:54:53;10.50;;;4.60;;
22490;SDS011;11412;50.802;4.350;2024-01-27T02:57:19;11.68;;;5.20;;
22490;SDS011;11412;50.802;4.350;2024-01-27T02:59:47;13.75;;;4.95;;
22490;SDS011;11412;50.802;4.350;2024-01-27T03:02:13;10.68;;;4.97;;
22490;SDS011;11412;50.802;4.350;2024-01-27T03:04:39;11.45;;;5.07;;
22490;SDS011;11412;50.802;4.350;2024-01-27T03:07:05;8.40;;;4.40;;
22490;SDS011;11412;50.802;4.350;2024-01-27T03:09:30;9.95;;;5.00;;
22490;SDS011;11412;50.802;4.350;2024-01-27T03:11:57;11.10;;;4.45;;
22490;SDS011;11412;50.802;4.350;2024-01-27T03:14:23;11.32;;;4.40;;
22490;SDS011;11412;50.802;4.350;2024-01-27T03:16:49;13.15;;;4.78;;
22490;SDS011;11412;50.802;4.350;2024-01-27T03:19:15;16.17;;;5.95;;
22490;SDS011;11412;50.802;4.350;2024-01-27T03:21:41;9.30;;;4.05;;
22490;SDS011;11412;50.802;4.350;2024-01-27T03:24:06;10.48;;;4.95;;
22490;SDS011;11412;50.802;4.350;2024-01-27T03:26:32;10.98;;;4.47;;
22490;SDS011;11412;50.802;4.350;2024-01-27T03:28:58;10.85;;;5.22;;
22490;SDS011;11412;50.802;4.350;2024-01-27T03:31:29;13.60;;;4.82;;
22490;SDS011;11412;50.802;4.350;2024-01-27T03:34:02;8.38;;;4.45;;
22490;SDS011;11412;50.802;4.350;2024-01-27T03:36:28;13.23;;;4.75;;
22490;SDS011;11412;50.802;4.350;2024-01-27T03:38:54;8.90;;;4.40;;
22490;SDS011;11412;50.802;4.350;2024-01-27T03:41:21;11.45;;;4.63;;
22490;SDS011;11412;50.802;4.350;2024-01-27T03:43:47;12.63;;;4.68;;
22490;SDS011;11412;50.802;4.350;2024-01-27T03:46:12;10.20;;;5.25;;
22490;SDS011;11412;50.802;4.350;2024-01-27T03:48:38;11.85;;;5.50;;
22490;SDS011;11412;50.802;4.350;2024-01-27T03:51:03;12.18;;;4.75;;
22490;SDS011;11412;50.802;4.350;2024-01-27T03:53:29;12.95;;;5.10;;
22490;SDS011;11412;50.802;4.350;2024-01-27T03:55:55;13.85;;;5.03;;
22490;SDS011;11412;50.802;4.350;2024-01-27T03:58:27;17.17;;;4.80;;
22490;SDS011;11412;50.802;4.350;2024-01-27T04:00:53;12.85;;;4.60;;
22490;SDS011;11412;50.802;4.350;2024-01-27T04:03:19;12.90;;;4.70;;
22490;SDS011;11412;50.802;4.350;2024-01-27T04:05:45;11.27;;;5.50;;
22490;SDS011;11412;50.802;4.350;2024-01-27T04:08:11;10.00;;;5.13;;
22490;SDS011;11412;50.802;4.350;2024-01-27T04:10:37;10.95;;;4.72;;
22490;SDS011;11412;50.802;4.350;2024-01-27T04:13:03;12.65;;;4.53;;
22490;SDS011;11412;50.802;4.350;2024-01-27T04:15:28;12.43;;;4.93;;
22490;SDS011;11412;50.802;4.350;2024-01-27T04:17:54;9.35;;;4.63;;
22490;SDS011;11412;50.802;4.350;2024-01-27T04:20:20;12.55;;;4.85;;
22490;SDS011;11412;50.802;4.350;2024-01-27T04:22:46;9.73;;;4.65;;
22490;SDS011;11412;50.802;4.350;2024-01-27T04:25:12;10.70;;;4.50;;
22490;SDS011;11412;50.802;4.350;2024-01-27T04:27:38;13.38;;;4.30;;
22490;SDS011;11412;50.802;4.350;2024-01-27T04:30:05;11.13;;;4.35;;
22490;SDS011;11412;50.802;4.350;2024-01-27T04:32:32;10.27;;;4.45;;
22490;SDS011;11412;50.802;4.350;2024-01-27T04:34:57;12.18;;;5.15;;
22490;SDS011;11412;50.802;4.350;2024-01-27T04:37:23;12.38;;;5.18;;
22490;SDS011;11412;50.802;4.350;2024-01-27T04:39:49;9.30;;;4.50;;
22490;SDS011;11412;50.802;4.350;2024-01-27T04:42:15;13.02;;;4.47;;
22490;SDS011;11412;50.802;4.350;2024-01-27T04:44:41;10.57;;;4.70;;
22490;SDS011;11412;50.802;4.350;2024-01-27T04:47:07;13.30;;;4.75;;
22490;SDS011;11412;50.802;4.350;2024-01-27T04:49:33;11.00;;;4.78;;
22490;SDS011;11412;50.802;4.350;2024-01-27T04:51:59;13.52;;;4.88;;
22490;SDS011;11412;50.802;4.350;2024-01-27T04:54:25;13.98;;;5.10;;
22490;SDS011;11412;50.802;4.350;2024-01-27T04:56:50;12.13;;;4.55;;
22490;SDS011;11412;50.802;4.350;2024-01-27T04:59:16;9.48;;;5.00;;
22490;SDS011;11412;50.802;4.350;2024-01-27T05:01:45;12.80;;;4.65;;
22490;SDS011;11412;50.802;4.350;2024-01-27T05:04:11;16.48;;;5.57;;
22490;SDS011;11412;50.802;4.350;2024-01-27T05:06:37;10.45;;;4.70;;
22490;SDS011;11412;50.802;4.350;2024-01-27T05:09:06;12.02;;;5.18;;
22490;SDS011;11412;50.802;4.350;2024-01-27T05:11:32;12.88;;;5.20;;
22490;SDS011;11412;50.802;4.350;2024-01-27T05:13:58;11.05;;;4.78;;
22490;SDS011;11412;50.802;4.350;2024-01-27T05:16:24;13.38;;;5.38;;
22490;SDS011;11412;50.802;4.350;2024-01-27T05:18:50;12.02;;;5.35;;
22490;SDS011;11412;50.802;4.350;2024-01-27T05:21:16;17.38;;;5.25;;
22490;SDS011;11412;50.802;4.350;2024-01-27T05:23:41;12.02;;;4.90;;
22490;SDS011;11412;50.802;4.350;2024-01-27T05:26:07;10.57;;;4.75;;
22490;SDS011;11412;50.802;4.350;2024-01-27T05:28:33;9.38;;;5.20;;
22490;SDS011;11412;50.802;4.350;2024-01-27T05:30:58;9.27;;;5.13;;
22490;SDS011;11412;50.802;4.350;2024-01-27T05:33:24;12.07;;;4.70;;
22490;SDS011;11412;50.802;4.350;2024-01-27T05:35:50;7.78;;;4.03;;
22490;SDS011;11412;50.802;4.350;2024-01-27T05:38:15;13.82;;;5.43;;
22490;SDS011;11412;50.802;4.350;2024-01-27T05:40:41;11.10;;;4.97;;
22490;SDS011;11412;50.802;4.350;2024-01-27T05:43:07;13.13;;;4.68;;
22490;SDS011;11412;50.802;4.350;2024-01-27T05:45:33;13.38;;;5.00;;
22490;SDS011;11412;50.802;4.350;2024-01-27T05:47:59;13.43;;;5.45;;
22490;SDS011;11412;50.802;4.350;2024-01-27T05:50:24;9.40;;;5.07;;
22490;SDS011;11412;50.802;4.350;2024-01-27T05:52:51;12.70;;;4.90;;
22490;SDS011;11412;50.802;4.350;2024-01-27T05:55:16;13.15;;;5.00;;
22490;SDS011;11412;50.802;4.350;2024-01-27T05:57:42;10.98;;;4.68;;
22490;SDS011;11412;50.802;4.350;2024-01-27T06:00:08;10.55;;;4.80;;
22490;SDS011;11412;50.802;4.350;2024-01-27T06:02:35;11.60;;;5.07;;
22490;SDS011;11412;50.802;4.350;2024-01-27T06:05:01;10.63;;;4.47;;
22490;SDS011;11412;50.802;4.350;2024-01-27T06:07:27;12.98;;;5.18;;
22490;SDS011;11412;50.802;4.350;2024-01-27T06:09:53;16.77;;;5.05;;
22490;SDS011;11412;50.802;4.350;2024-01-27T06:12:19;9.85;;;5.10;;
22490;SDS011;11412;50.802;4.350;2024-01-27T06:14:45;11.20;;;5.18;;
22490;SDS011;11412;50.802;4.350;2024-01-27T06:17:10;10.32;;;5.38;;
22490;SDS011;11412;50.802;4.350;2024-01-27T06:19:37;9.85;;;4.75;;
22490;SDS011;11412;50.802;4.350;2024-01-27T06:22:03;13.70;;;5.47;;
22490;SDS011;11412;50.802;4.350;2024-01-27T06:24:28;8.63;;;4.65;;
22490;SDS011;11412;50.802;4.350;2024-01-27T06:26:54;10.80;;;5.18;;
22490;SDS011;11412;50.802;4.350;2024-01-27T06:29:20;10.95;;;5.53;;
22490;SDS011;11412;50.802;4.350;2024-01-27T06:31:45;11.93;;;4.97;;
22490;SDS011;11412;50.802;4.350;2024-01-27T06:34:11;11.40;;;4.90;;
22490;SDS011;11412;50.802;4.350;2024-01-27T06:36:37;12.50;;;5.18;;
22490;SDS011;11412;50.802;4.350;2024-01-27T06:39:02;10.30;;;4.72;;
22490;SDS011;11412;50.802;4.350;2024-01-27T06:41:28;14.10;;;5.38;;
22490;SDS011;11412;50.802;4.350;2024-01-27T06:43:54;11.90;;;5.03;;
22490;SDS011;11412;50.802;4.350;2024-01-27T06:46:20;16.77;;;5.95;;
22490;SDS011;11412;50.802;4.350;2024-01-27T06:48:45;12.43;;;5.32;;
22490;SDS011;11412;50.802;4.350;2024-01-27T06:51:11;10.98;;;4.80;;
22490;SDS011;11412;50.802;4.350;2024-01-27T06:53:37;8.38;;;4.75;;
22490;SDS011;11412;50.802;4.350;2024-01-27T06:56:02;13.70;;;5.47;;
22490;SDS011;11412;50.802;4.350;2024-01-27T06:58:28;9.70;;;4.72;;
22490;SDS011;11412;50.802;4.350;2024-01-27T07:00:54;12.80;;;5.32;;
22490;SDS011;11412;50.802;4.350;2024-01-27T07:03:20;12.52;;;5.32;;
22490;SDS011;11412;50.802;4.350;2024-01-27T07:05:45;12.80;;;5.90;;
22490;SDS011;11412;50.802;4.350;2024-01-27T07:08:11;9.50;;;4.88;;
22490;SDS011;11412;50.802;4.350;2024-01-27T07:10:37;10.00;;;5.30;;
22490;SDS011;11412;50.802;4.350;2024-01-27T07:13:02;11.75;;;5.32;;
22490;SDS011;11412;50.802;4.350;2024-01-27T07:15:28;11.32;;;5.43;;
22490;SDS011;11412;50.802;4.350;2024-01-27T07:17:54;15.23;;;6.20;;
22490;SDS011;11412;50.802;4.350;2024-01-27T07:20:20;12.27;;;5.03;;
22490;SDS011;11412;50.802;4.350;2024-01-27T07:22:49;10.35;;;4.65;;
22490;SDS011;11412;50.802;4.350;2024-01-27T07:25:15;17.60;;;6.18;;
22490;SDS011;11412;50.802;4.350;2024-01-27T07:27:41;19.85;;;5.78;;
22490;SDS011;11412;50.802;4.350;2024-01-27T07:30:06;17.95;;;6.00;;
22490;SDS011;11412;50.802;4.350;2024-01-27T07:32:34;13.40;;;5.70;;
22490;SDS011;11412;50.802;4.350;2024-01-27T07:35:01;11.95;;;5.57;;
22490;SDS011;11412;50.802;4.350;2024-01-27T07:37:27;10.35;;;5.32;;
22490;SDS011;11412;50.802;4.350;2024-01-27T07:39:53;13.43;;;5.55;;
22490;SDS011;11412;50.802;4.350;2024-01-27T07:42:19;12.00;;;5.57;;
22490;SDS011;11412;50.802;4.350;2024-01-27T07:44:44;14.45;;;5.00;;
22490;SDS011;11412;50.802;4.350;2024-01-27T07:47:10;8.82;;;5.03;;
22490;SDS011;11412;50.802;4.350;2024-01-27T07:49:36;10.38;;;5.13;;
22490;SDS011;11412;50.802;4.350;2024-01-27T07:52:01;10.32;;;4.70;;
22490;SDS011;11412;50.802;4.350;2024-01-27T07:54:27;10.52;;;5.13;;
22490;SDS011;11412;50.802;4.350;2024-01-27T07:56:54;10.68;;;5.28;;
22490;SDS011;11412;50.802;4.350;2024-01-27T07:59:20;12.00;;;4.97;;
22490;SDS011;11412;50.802;4.350;2024-01-27T08:01:45;13.95;;;4.75;;
22490;SDS011;11412;50.802;4.350;2024-01-27T08:04:11;13.05;;;5.35;;
22490;SDS011;11412;50.802;4.350;2024-01-27T08:06:46;11.18;;;4.40;;
22490;SDS011;11412;50.802;4.350;2024-01-27T08:09:13;8.15;;;4.40;;
22490;SDS011;11412;50.802;4.350;2024-01-27T08:11:40;9.23;;;4.57;;
22490;SDS011;11412;50.802;4.350;2024-01-27T08:14:05;11.73;;;5.18;;
22490;SDS011;11412;50.802;4.350;2024-01-27T08:16:31;10.20;;;4.53;;
22490;SDS011;11412;50.802;4.350;2024-01-27T08:18:56;12.55;;;4.80;;
22490;SDS011;11412;50.802;4.350;2024-01-27T08:21:22;14.73;;;5.45;;
22490;SDS011;11412;50.802;4.350;2024-01-27T08:23:48;10.63;;;4.45;;
22490;SDS011;11412;50.802;4.350;2024-01-27T08:26:14;14.13;;;5.15;;
22490;SDS011;11412;50.802;4.350;2024-01-27T08:28:40;18.85;;;5.68;;
22490;SDS011;11412;50.802;4.350;2024-01-27T08:31:05;13.93;;;5.70;;
22490;SDS011;11412;50.802;4.350;2024-01-27T08:33:31;12.15;;;4.97;;
22490;SDS011;11412;50.802;4.350;2024-01-27T08:35:57;12.70;;;4.88;;
22490;SDS011;11412;50.802;4.350;2024-01-27T08:38:23;16.35;;;4.22;;
22490;SDS011;11412;50.802;4.350;2024-01-27T08:40:48;15.02;;;5.07;;
22490;SDS011;11412;50.802;4.350;2024-01-27T08:43:14;14.02;;;4.50;;
22490;SDS011;11412;50.802;4.350;2024-01-27T08:45:40;9.63;;;3.97;;
22490;SDS011;11412;50.802;4.350;2024-01-27T08:48:06;11.20;;;3.85;;
22490;SDS011;11412;50.802;4.350;2024-01-27T08:50:32;12.23;;;3.95;;
22490;SDS011;11412;50.802;4.350;2024-01-27T08:52:58;10.07;;;3.78;;
22490;SDS011;11412;50.802;4.350;2024-01-27T08:55:24;14.27;;;3.95;;
22490;SDS011;11412;50.802;4.350;2024-01-27T08:57:49;12.50;;;4.35;;
22490;SDS011;11412;50.802;4.350;2024-01-27T09:00:15;10.80;;;4.15;;
22490;SDS011;11412;50.802;4.350;2024-01-27T09:02:44;15.43;;;5.22;;
22490;SDS011;11412;50.802;4.350;2024-01-27T09:05:10;14.70;;;4.78;;
22490;SDS011;11412;50.802;4.350;2024-01-27T09:07:36;15.20;;;5.30;;
22490;SDS011;11412;50.802;4.350;2024-01-27T09:10:02;15.40;;;5.10;;
22490;SDS011;11412;50.802;4.350;2024-01-27T09:12:28;16.13;;;5.25;;
22490;SDS011;11412;50.802;4.350;2024-01-27T09:14:54;17.45;;;4.60;;
22490;SDS011;11412;50.802;4.350;2024-01-27T09:17:20;13.93;;;5.32;;
22490;SDS011;11412;50.802;4.350;2024-01-27T09:19:46;13.63;;;5.72;;
22490;SDS011;11412;50.802;4.350;2024-01-27T09:22:12;16.35;;;4.78;;
22490;SDS011;11412;50.802;4.350;2024-01-27T09:24:37;24.45;;;5.88;;
22490;SDS011;11412;50.802;4.350;2024-01-27T09:27:03;14.13;;;4.60;;
22490;SDS011;11412;50.802;4.350;2024-01-27T09:29:30;14.15;;;4.32;;
22490;SDS011;11412;50.802;4.350;2024-01-27T09:31:56;14.88;;;4.80;;
22490;SDS011;11412;50.802;4.350;2024-01-27T09:34:21;12.90;;;4.50;;
22490;SDS011;11412;50.802;4.350;2024-01-27T09:36:47;12.10;;;4.78;;
22490;SDS011;11412;50.802;4.350;2024-01-27T09:39:13;17.20;;;3.90;;
22490;SDS011;11412;50.802;4.350;2024-01-27T09:41:38;13.30;;;4.07;;
22490;SDS011;11412;50.802;4.350;2024-01-27T09:44:05;6.53;;;3.45;;
22490;SDS011;11412;50.802;4.350;2024-01-27T09:46:32;11.95;;;4.05;;
22490;SDS011;11412;50.802;4.350;2024-01-27T09:48:58;9.50;;;3.65;;
22490;SDS011;11412;50.802;4.350;2024-01-27T09:51:24;14.95;;;3.85;;
22490;SDS011;11412;50.802;4.350;2024-01-27T09:53:51;15.57;;;4.70;;
22490;SDS011;11412;50.802;4.350;2024-01-27T09:56:17;13.80;;;3.67;;
22490;SDS011;11412;50.802;4.350;2024-01-27T09:58:44;11.43;;;3.40;;
22490;SDS011;11412;50.802;4.350;2024-01-27T10:01:10;13.75;;;3.40;;
22490;SDS011;11412;50.802;4.350;2024-01-27T10:03:38;12.15;;;3.38;;
22490;SDS011;11412;50.802;4.350;2024-01-27T10:06:09;10.60;;;2.92;;
22490;SDS011;11412;50.802;4.350;2024-01-27T10:08:35;14.45;;;3.20;;
22490;SDS011;11412;50.802;4.350;2024-01-27T10:11:08;6.88;;;2.80;;
22490;SDS011;11412;50.802;4.350;2024-01-27T10:13:38;6.28;;;2.92;;
22490;SDS011;11412;50.802;4.350;2024-01-27T10:16:05;8.40;;;2.58;;
22490;SDS011;11412;50.802;4.350;2024-01-27T10:18:32;6.85;;;2.58;;
22490;SDS011;11412;50.802;4.350;2024-01-27T10:20:58;9.38;;;2.90;;
22490;SDS011;11412;50.802;4.350;2024-01-27T10:23:24;13.10;;;2.63;;
22490;SDS011;11412;50.802;4.350;2024-01-27T10:25:50;5.10;;;2.58;;
22490;SDS011;11412;50.802;4.350;2024-01-27T10:28:16;7.40;;;2.53;;
22490;SDS011;11412;50.802;4.350;2024-01-27T10:30:43;8.95;;;2.58;;
22490;SDS011;11412;50.802;4.350;2024-01-27T10:33:09;9.40;;;2.80;;
22490;SDS011;11412;50.802;4.350;2024-01-27T10:35:36;11.75;;;2.80;;
22490;SDS011;11412;50.802;4.350;2024-01-27T10:38:02;8.90;;;3.03;;
22490;SDS011;11412;50.802;4.350;2024-01-27T10:40:28;9.02;;;3.63;;
22490;SDS011;11412;50.802;4.350;2024-01-27T10:43:01;5.68;;;2.20;;
22490;SDS011;11412;50.802;4.350;2024-01-27T10:45:33;12.10;;;2.75;;
22490;SDS011;11412;50.802;4.350;2024-01-27T10:48:03;7.78;;;2.47;;
22490;SDS011;11412;50.802;4.350;2024-01-27T10:50:32;10.65;;;2.90;;
22490;SDS011;11412;50.802;4.350;2024-01-27T10:53:00;7.38;;;2.15;;
22490;SDS011;11412;50.802;4.350;2024-01-27T10:55:28;14.45;;;2.50;;
22490;SDS011;11412;50.802;4.350;2024-01-27T10:57:54;6.93;;;2.05;;
22490;SDS011;11412;50.802;4.350;2024-01-27T11:00:21;7.00;;;2.45;;
22490;SDS011;11412;50.802;4.350;2024-01-27T11:02:49;10.18;;;2.75;;
22490;SDS011;11412;50.802;4.350;2024-01-27T11:05:18;6.45;;;2.13;;
22490;SDS011;11412;50.802;4.350;2024-01-27T11:07:46;6.20;;;2.72;;
22490;SDS011;11412;50.802;4.350;2024-01-27T11:10:12;7.78;;;2.40;;
22490;SDS011;11412;50.802;4.350;2024-01-27T11:12:38;7.30;;;2.50;;
22490;SDS011;11412;50.802;4.350;2024-01-27T11:15:04;7.80;;;2.30;;
22490;SDS011;11412;50.802;4.350;2024-01-27T11:17:40;9.68;;;2.40;;
22490;SDS011;11412;50.802;4.350;2024-01-27T11:20:09;11.38;;;2.75;;
22490;SDS011;11412;50.802;4.350;2024-01-27T11:27:38;9.18;;;2.10;;
22490;SDS011;11412;50.802;4.350;2024-01-27T11:30:04;4.43;;;1.92;;
22490;SDS011;11412;50.802;4.350;2024-01-27T11:32:31;8.27;;;2.30;;
22490;SDS011;11412;50.802;4.350;2024-01-27T11:35:00;7.45;;;2.17;;
22490;SDS011;11412;50.802;4.350;2024-01-27T11:37:29;11.77;;;2.47;;
22490;SDS011;11412;50.802;4.350;2024-01-27T11:40:05;7.65;;;2.33;;
22490;SDS011;11412;50.802;4.350;2024-01-27T11:42:34;11.60;;;2.15;;
22490;SDS011;11412;50.802;4.350;2024-01-27T11:45:00;8.43;;;2.40;;
22490;SDS011;11412;50.802;4.350;2024-01-27T11:47:26;6.35;;;2.10;;
22490;SDS011;11412;50.802;4.350;2024-01-27T11:49:53;12.95;;;2.65;;
22490;SDS011;11412;50.802;4.350;2024-01-27T11:52:20;5.35;;;2.33;;
22490;SDS011;11412;50.802;4.350;2024-01-27T11:54:53;8.52;;;2.47;;
22490;SDS011;11412;50.802;4.350;2024-01-27T11:57:21;11.23;;;3.15;;
22490;SDS011;11412;50.802;4.350;2024-01-27T11:59:47;10.50;;;1.80;;
22490;SDS011;11412;50.802;4.350;2024-01-27T12:02:13;5.57;;;2.40;;
22490;SDS011;11412;50.802;4.350;2024-01-27T12:04:39;5.13;;;1.98;;
22490;SDS011;11412;50.802;4.350;2024-01-27T12:07:05;10.10;;;2.60;;
22490;SDS011;11412;50.802;4.350;2024-01-27T12:09:32;6.72;;;1.95;;
22490;SDS011;11412;50.802;4.350;2024-01-27T12:11:58;11.75;;;2.10;;
22490;SDS011;11412;50.802;4.350;2024-01-27T12:14:23;8.25;;;2.25;;
22490;SDS011;11412;50.802;4.350;2024-01-27T12:16:50;6.60;;;2.10;;
22490;SDS011;11412;50.802;4.350;2024-01-27T12:19:16;3.83;;;2.13;;
22490;SDS011;11412;50.802;4.350;2024-01-27T12:21:51;10.32;;;2.25;;
22490;SDS011;11412;50.802;4.350;2024-01-27T12:24:16;3.92;;;1.80;;
22490;SDS011;11412;50.802;4.350;2024-01-27T12:26:43;7.03;;;2.08;;
22490;SDS011;11412;50.802;4.350;2024-01-27T12:29:10;6.78;;;1.88;;
22490;SDS011;11412;50.802;4.350;2024-01-27T12:31:36;7.00;;;2.10;;
22490;SDS011;11412;50.802;4.350;2024-01-27T12:34:02;6.50;;;1.75;;
22490;SDS011;11412;50.802;4.350;2024-01-27T12:36:27;4.55;;;1.83;;
22490;SDS011;11412;50.802;4.350;2024-01-27T12:38:54;7.75;;;2.58;;
22490;SDS011;11412;50.802;4.350;2024-01-27T12:41:20;5.70;;;1.63;;
22490;SDS011;11412;50.802;4.350;2024-01-27T12:43:46;4.93;;;1.65;;
22490;SDS011;11412;50.802;4.350;2024-01-27T12:46:11;9.23;;;2.40;;
22490;SDS011;11412;50.802;4.350;2024-01-27T12:48:37;6.25;;;2.45;;
22490;SDS011;11412;50.802;4.350;2024-01-27T12:51:04;15.65;;;6.75;;
22490;SDS011;11412;50.802;4.350;2024-01-27T12:53:29;5.68;;;1.95;;
22490;SDS011;11412;50.802;4.350;2024-01-27T12:55:56;5.63;;;2.13;;
22490;SDS011;11412;50.802;4.350;2024-01-27T12:58:22;4.22;;;1.90;;
22490;SDS011;11412;50.802;4.350;2024-01-27T13:00:48;8.95;;;2.40;;
22490;SDS011;11412;50.802;4.350;2024-01-27T13:03:15;12.20;;;2.65;;
22490;SDS011;11412;50.802;4.350;2024-01-27T13:05:41;4.22;;;2.15;;
22490;SDS011;11412;50.802;4.350;2024-01-27T13:08:07;4.90;;;1.52;;
22490;SDS011;11412;50.802;4.350;2024-01-27T13:10:33;4.43;;;1.70;;
22490;SDS011;11412;50.802;4.350;2024-01-27T13:12:59;4.35;;;1.90;;
22490;SDS011;11412;50.802;4.350;2024-01-27T13:15:25;5.50;;;2.30;;
22490;SDS011;11412;50.802;4.350;2024-01-27T13:17:51;10.90;;;2.20;;
22490;SDS011;11412;50.802;4.350;2024-01-27T13:20:17;5.93;;;2.03;;
22490;SDS011;11412;50.802;4.350;2024-01-27T13:22:43;5.95;;;1.95;;
22490;SDS011;11412;50.802;4.350;2024-01-27T13:25:10;5.18;;;1.85;;
22490;SDS011;11412;50.802;4.350;2024-01-27T13:27:36;5.20;;;2.38;;
22490;SDS011;11412;50.802;4.350;2024-01-27T13:30:02;4.50;;;1.77;;
22490;SDS011;11412;50.802;4.350;2024-01-27T13:32:28;6.93;;;2.20;;
22490;SDS011;11412;50.802;4.350;2024-01-27T13:34:54;5.78;;;1.70;;
22490;SDS011;11412;50.802;4.350;2024-01-27T13:37:20;9.73;;;2.08;;
22490;SDS011;11412;50.802;4.350;2024-01-27T13:39:46;7.50;;;2.00;;
22490;SDS011;11412;50.802;4.350;2024-01-27T13:42:12;5.32;;;1.55;;
22490;SDS011;11412;50.802;4.350;2024-01-27T13:44:38;5.60;;;1.95;;
22490;SDS011;11412;50.802;4.350;2024-01-27T13:47:04;3.88;;;1.35;;
22490;SDS011;11412;50.802;4.350;2024-01-27T13:49:33;4.78;;;2.03;;
22490;SDS011;11412;50.802;4.350;2024-01-27T13:51:58;4.95;;;1.80;;
22490;SDS011;11412;50.802;4.350;2024-01-27T13:54:24;6.70;;;1.80;;
22490;SDS011;11412;50.802;4.350;2024-01-27T13:56:50;5.43;;;1.85;;
22490;SDS011;11412;50.802;4.350;2024-01-27T13:59:16;6.65;;;1.70;;
22490;SDS011;11412;50.802;4.350;2024-01-27T14:01:42;2.28;;;1.70;;
22490;SDS011;11412;50.802;4.350;2024-01-27T14:04:08;5.63;;;1.83;;
22490;SDS011;11412;50.802;4.350;2024-01-27T14:06:36;5.25;;;1.90;;
22490;SDS011;11412;50.802;4.350;2024-01-27T14:09:01;5.18;;;2.00;;
22490;SDS011;11412;50.802;4.350;2024-01-27T14:11:28;3.28;;;1.60;;
22490;SDS011;11412;50.802;4.350;2024-01-27T14:13:54;3.95;;;1.83;;
22490;SDS011;11412;50.802;4.350;2024-01-27T14:16:19;5.55;;;1.63;;
22490;SDS011;11412;50.802;4.350;2024-01-27T14:18:45;6.38;;;2.05;;
22490;SDS011;11412;50.802;4.350;2024-01-27T14:21:12;7.60;;;2.25;;
22490;SDS011;11412;50.802;4.350;2024-01-27T14:23:37;6.05;;;2.55;;
22490;SDS011;11412;50.802;4.350;2024-01-27T14:26:03;6.80;;;2.33;;
22490;SDS011;11412;50.802;4.350;2024-01-27T14:28:29;4.35;;;2.13;;
22490;SDS011;11412;50.802;4.350;2024-01-27T14:30:54;7.07;;;2.10;;
22490;SDS011;11412;50.802;4.350;2024-01-27T14:33:20;6.90;;;2.20;;
22490;SDS011;11412;50.802;4.350;2024-01-27T14:35:47;5.78;;;2.17;;
22490;SDS011;11412;50.802;4.350;2024-01-27T14:38:13;6.07;;;2.15;;
22490;SDS011;11412;50.802;4.350;2024-01-27T14:40:38;5.65;;;2.05;;